sensor_id;sensor_type;location;lat;lon;timestamp;P1;durP1;ratioP1;P2;durP2;ratioP2
9536;SDS011;4807;48.024;11.726;2022-08-11T00:02:05;2.33;;;1.80;;
9536;SDS011;4807;48.024;11.726;2022-08-11T00:05:20;1.60;;;1.50;;
9536;SDS011;4807;48.024;11.726;2022-08-11T00:08:29;1.93;;;1.83;;
9536;SDS011;4807;48.024;11.726;2022-08-11T00:11:41;2.20;;;1.53;;
9536;SDS011;4807;48.024;11.726;2022-08-11T00:14:57;2.83;;;1.50;;
9536;SDS011;4807;48.024;11.726;2022-08-11T00:18:07;1.53;;;1.43;;
9536;SDS011;4807;48.024;11.726;2022-08-11T00:21:19;1.90;;;1.80;;
9536;SDS011;4807;48.024;11.726;2022-08-11T00:24:49;2.33;;;1.97;;
9536;SDS011;4807;48.024;11.726;2022-08-11T00:31:34;2.30;;;1.60;;
9536;SDS011;4807;48.024;11.726;2022-08-11T00:34:49;3.57;;;1.70;;
9536;SDS011;4807;48.024;11.726;2022-08-11T00:38:22;3.20;;;1.77;;
9536;SDS011;4807;48.024;11.726;2022-08-11T00:41:38;3.07;;;1.73;;
9536;SDS011;4807;48.024;11.726;2022-08-11T00:45:05;1.97;;;1.87;;
9536;SDS011;4807;48.024;11.726;2022-08-11T00:48:23;2.10;;;1.90;;
9536;SDS011;4807;48.024;11.726;2022-08-11T00:51:42;2.10;;;1.90;;
9536;SDS011;4807;48.024;11.726;2022-08-11T01:03:01;2.73;;;1.53;;
9536;SDS011;4807;48.024;11.726;2022-08-11T01:06:37;2.33;;;2.13;;
9536;SDS011;4807;48.024;11.726;2022-08-11T01:10:20;1.80;;;1.67;;
9536;SDS011;4807;48.024;11.726;2022-08-11T01:14:03;3.37;;;1.83;;
9536;SDS011;4807;48.024;11.726;2022-08-11T01:18:18;5.53;;;2.37;;
9536;SDS011;4807;48.024;11.726;2022-08-11T01:27:03;2.30;;;1.90;;
9536;SDS011;4807;48.024;11.726;2022-08-11T01:39:03;5.63;;;1.97;;
9536;SDS011;4807;48.024;11.726;2022-08-11T01:47:30;2.20;;;2.10;;
9536;SDS011;4807;48.024;11.726;2022-08-11T01:54:42;2.20;;;2.10;;
9536;SDS011;4807;48.024;11.726;2022-08-11T01:58:12;2.30;;;2.10;;
9536;SDS011;4807;48.024;11.726;2022-08-11T02:02:03;3.17;;;1.97;;
9536;SDS011;4807;48.024;11.726;2022-08-11T02:05:51;2.43;;;2.23;;
9536;SDS011;4807;48.024;11.726;2022-08-11T02:09:42;3.00;;;2.27;;
9536;SDS011;4807;48.024;11.726;2022-08-11T02:13:35;2.50;;;2.10;;
9536;SDS011;4807;48.024;11.726;2022-08-11T02:20:25;2.50;;;2.17;;
9536;SDS011;4807;48.024;11.726;2022-08-11T02:24:02;3.13;;;2.17;;
9536;SDS011;4807;48.024;11.726;2022-08-11T02:27:22;2.60;;;2.40;;
9536;SDS011;4807;48.024;11.726;2022-08-11T02:30:58;2.27;;;2.07;;
9536;SDS011;4807;48.024;11.726;2022-08-11T02:34:54;2.70;;;2.50;;
9536;SDS011;4807;48.024;11.726;2022-08-11T02:38:18;2.30;;;2.10;;
9536;SDS011;4807;48.024;11.726;2022-08-11T02:41:38;2.30;;;2.10;;
9536;SDS011;4807;48.024;11.726;2022-08-11T02:45:40;2.63;;;2.43;;
9536;SDS011;4807;48.024;11.726;2022-08-11T02:49:04;2.57;;;2.40;;
9536;SDS011;4807;48.024;11.726;2022-08-11T02:52:42;2.73;;;2.50;;
9536;SDS011;4807;48.024;11.726;2022-08-11T02:56:06;2.37;;;2.27;;
9536;SDS011;4807;48.024;11.726;2022-08-11T02:59:31;2.77;;;2.57;;
9536;SDS011;4807;48.024;11.726;2022-08-11T03:03:12;1.80;;;1.70;;
9536;SDS011;4807;48.024;11.726;2022-08-11T03:06:31;2.33;;;2.20;;
9536;SDS011;4807;48.024;11.726;2022-08-11T03:09:54;4.40;;;2.10;;
9536;SDS011;4807;48.024;11.726;2022-08-11T03:13:16;2.37;;;1.90;;
9536;SDS011;4807;48.024;11.726;2022-08-11T03:16:55;2.40;;;2.00;;
9536;SDS011;4807;48.024;11.726;2022-08-11T03:20:22;2.80;;;2.20;;
9536;SDS011;4807;48.024;11.726;2022-08-11T03:23:46;2.07;;;1.97;;
9536;SDS011;4807;48.024;11.726;2022-08-11T03:27:07;2.50;;;2.30;;
9536;SDS011;4807;48.024;11.726;2022-08-11T03:30:33;2.20;;;2.00;;
9536;SDS011;4807;48.024;11.726;2022-08-11T03:33:53;2.50;;;2.30;;
9536;SDS011;4807;48.024;11.726;2022-08-11T03:37:25;2.33;;;2.13;;
9536;SDS011;4807;48.024;11.726;2022-08-11T03:41:01;3.00;;;2.00;;
9536;SDS011;4807;48.024;11.726;2022-08-11T03:45:14;3.90;;;1.90;;
9536;SDS011;4807;48.024;11.726;2022-08-11T03:48:36;2.10;;;2.00;;
9536;SDS011;4807;48.024;11.726;2022-08-11T03:52:04;3.03;;;2.20;;
9536;SDS011;4807;48.024;11.726;2022-08-11T03:55:32;3.07;;;1.93;;
9536;SDS011;4807;48.024;11.726;2022-08-11T03:59:31;4.50;;;2.57;;
9536;SDS011;4807;48.024;11.726;2022-08-11T04:03:29;2.43;;;2.23;;
9536;SDS011;4807;48.024;11.726;2022-08-11T04:07:27;2.27;;;2.13;;
9536;SDS011;4807;48.024;11.726;2022-08-11T04:11:44;2.33;;;2.10;;
9536;SDS011;4807;48.024;11.726;2022-08-11T04:23:01;3.30;;;2.03;;
9536;SDS011;4807;48.024;11.726;2022-08-11T04:30:50;2.90;;;2.03;;
9536;SDS011;4807;48.024;11.726;2022-08-11T04:34:23;2.97;;;1.90;;
9536;SDS011;4807;48.024;11.726;2022-08-11T04:37:49;2.90;;;2.23;;
9536;SDS011;4807;48.024;11.726;2022-08-11T04:41:50;2.33;;;1.77;;
9536;SDS011;4807;48.024;11.726;2022-08-11T04:46:14;2.00;;;1.90;;
9536;SDS011;4807;48.024;11.726;2022-08-11T04:50:11;3.23;;;2.60;;
9536;SDS011;4807;48.024;11.726;2022-08-11T04:54:14;2.80;;;2.00;;
9536;SDS011;4807;48.024;11.726;2022-08-11T04:57:58;7.03;;;2.13;;
9536;SDS011;4807;48.024;11.726;2022-08-11T05:01:46;2.67;;;2.47;;
9536;SDS011;4807;48.024;11.726;2022-08-11T05:05:51;2.20;;;2.10;;
9536;SDS011;4807;48.024;11.726;2022-08-11T05:09:35;2.43;;;2.23;;
9536;SDS011;4807;48.024;11.726;2022-08-11T05:13:23;2.27;;;2.07;;
9536;SDS011;4807;48.024;11.726;2022-08-11T05:17:12;1.90;;;1.80;;
9536;SDS011;4807;48.024;11.726;2022-08-11T05:20:47;3.47;;;2.47;;
9536;SDS011;4807;48.024;11.726;2022-08-11T05:24:19;3.10;;;2.50;;
9536;SDS011;4807;48.024;11.726;2022-08-11T05:28:04;3.37;;;2.27;;
9536;SDS011;4807;48.024;11.726;2022-08-11T05:31:37;3.03;;;2.30;;
9536;SDS011;4807;48.024;11.726;2022-08-11T05:35:27;2.83;;;2.50;;
9536;SDS011;4807;48.024;11.726;2022-08-11T05:39:06;4.37;;;3.00;;
9536;SDS011;4807;48.024;11.726;2022-08-11T05:42:48;4.70;;;4.30;;
9536;SDS011;4807;48.024;11.726;2022-08-11T05:46:22;8.53;;;4.00;;
9536;SDS011;4807;48.024;11.726;2022-08-11T05:49:52;5.60;;;4.10;;
9536;SDS011;4807;48.024;11.726;2022-08-11T05:53:22;4.90;;;3.73;;
9536;SDS011;4807;48.024;11.726;2022-08-11T05:56:55;4.43;;;4.03;;
9536;SDS011;4807;48.024;11.726;2022-08-11T06:00:09;5.37;;;3.40;;
9536;SDS011;4807;48.024;11.726;2022-08-11T06:03:22;3.93;;;3.53;;
9536;SDS011;4807;48.024;11.726;2022-08-11T06:06:36;4.70;;;3.63;;
9536;SDS011;4807;48.024;11.726;2022-08-11T06:09:53;3.70;;;3.33;;
9536;SDS011;4807;48.024;11.726;2022-08-11T06:13:09;5.03;;;3.00;;
9536;SDS011;4807;48.024;11.726;2022-08-11T06:16:24;3.00;;;2.70;;
9536;SDS011;4807;48.024;11.726;2022-08-11T06:19:35;3.43;;;2.73;;
9536;SDS011;4807;48.024;11.726;2022-08-11T06:22:54;3.23;;;2.97;;
9536;SDS011;4807;48.024;11.726;2022-08-11T06:26:08;3.03;;;2.73;;
9536;SDS011;4807;48.024;11.726;2022-08-11T06:29:20;4.07;;;2.87;;
9536;SDS011;4807;48.024;11.726;2022-08-11T06:32:52;4.87;;;2.50;;
9536;SDS011;4807;48.024;11.726;2022-08-11T06:36:04;2.70;;;2.50;;
9536;SDS011;4807;48.024;11.726;2022-08-11T06:39:23;2.90;;;2.27;;
9536;SDS011;4807;48.024;11.726;2022-08-11T06:42:52;3.70;;;2.67;;
9536;SDS011;4807;48.024;11.726;2022-08-11T06:46:09;4.17;;;2.40;;
9536;SDS011;4807;48.024;11.726;2022-08-11T06:49:35;2.00;;;1.80;;
9536;SDS011;4807;48.024;11.726;2022-08-11T06:53:08;5.63;;;2.57;;
9536;SDS011;4807;48.024;11.726;2022-08-11T06:56:21;5.23;;;2.70;;
9536;SDS011;4807;48.024;11.726;2022-08-11T06:59:51;3.43;;;2.47;;
9536;SDS011;4807;48.024;11.726;2022-08-11T07:03:36;11.47;;;2.83;;
9536;SDS011;4807;48.024;11.726;2022-08-11T07:07:20;3.33;;;2.23;;
9536;SDS011;4807;48.024;11.726;2022-08-11T07:11:47;2.60;;;2.40;;
9536;SDS011;4807;48.024;11.726;2022-08-11T07:15:30;3.17;;;2.27;;
9536;SDS011;4807;48.024;11.726;2022-08-11T07:19:11;2.37;;;2.17;;
9536;SDS011;4807;48.024;11.726;2022-08-11T07:22:45;2.27;;;1.97;;
9536;SDS011;4807;48.024;11.726;2022-08-11T07:26:19;2.10;;;2.00;;
9536;SDS011;4807;48.024;11.726;2022-08-11T07:29:50;3.10;;;2.03;;
9536;SDS011;4807;48.024;11.726;2022-08-11T07:33:03;3.50;;;2.00;;
9536;SDS011;4807;48.024;11.726;2022-08-11T07:36:14;2.57;;;2.23;;
9536;SDS011;4807;48.024;11.726;2022-08-11T07:39:26;2.23;;;2.03;;
9536;SDS011;4807;48.024;11.726;2022-08-11T07:42:41;2.33;;;1.87;;
9536;SDS011;4807;48.024;11.726;2022-08-11T07:45:52;2.93;;;2.03;;
9536;SDS011;4807;48.024;11.726;2022-08-11T07:49:22;3.10;;;2.10;;
9536;SDS011;4807;48.024;11.726;2022-08-11T07:52:49;2.73;;;1.90;;
9536;SDS011;4807;48.024;11.726;2022-08-11T07:55:59;2.03;;;1.70;;
9536;SDS011;4807;48.024;11.726;2022-08-11T07:59:11;1.80;;;1.67;;
9536;SDS011;4807;48.024;11.726;2022-08-11T08:02:58;2.27;;;2.10;;
9536;SDS011;4807;48.024;11.726;2022-08-11T08:06:27;2.40;;;2.20;;
9536;SDS011;4807;48.024;11.726;2022-08-11T08:09:57;4.30;;;2.10;;
9536;SDS011;4807;48.024;11.726;2022-08-11T08:13:24;2.90;;;2.03;;
9536;SDS011;4807;48.024;11.726;2022-08-11T08:16:50;2.43;;;1.93;;
9536;SDS011;4807;48.024;11.726;2022-08-11T08:20:17;3.03;;;2.30;;
9536;SDS011;4807;48.024;11.726;2022-08-11T08:23:31;3.77;;;2.03;;
9536;SDS011;4807;48.024;11.726;2022-08-11T08:26:40;2.70;;;1.73;;
9536;SDS011;4807;48.024;11.726;2022-08-11T08:30:06;3.63;;;2.10;;
9536;SDS011;4807;48.024;11.726;2022-08-11T08:33:34;2.47;;;1.90;;
9536;SDS011;4807;48.024;11.726;2022-08-11T08:36:47;2.17;;;1.83;;
9536;SDS011;4807;48.024;11.726;2022-08-11T08:40:00;2.20;;;1.83;;
9536;SDS011;4807;48.024;11.726;2022-08-11T08:43:10;2.77;;;1.63;;
9536;SDS011;4807;48.024;11.726;2022-08-11T08:46:24;2.03;;;1.77;;
9536;SDS011;4807;48.024;11.726;2022-08-11T08:49:43;1.80;;;1.70;;
9536;SDS011;4807;48.024;11.726;2022-08-11T08:52:57;4.40;;;2.00;;
9536;SDS011;4807;48.024;11.726;2022-08-11T08:56:13;4.13;;;1.73;;
9536;SDS011;4807;48.024;11.726;2022-08-11T08:59:25;3.20;;;1.80;;
9536;SDS011;4807;48.024;11.726;2022-08-11T09:02:54;4.50;;;1.90;;
9536;SDS011;4807;48.024;11.726;2022-08-11T09:06:22;1.53;;;1.43;;
9536;SDS011;4807;48.024;11.726;2022-08-11T09:09:33;4.90;;;1.90;;
9536;SDS011;4807;48.024;11.726;2022-08-11T09:12:45;3.03;;;1.60;;
9536;SDS011;4807;48.024;11.726;2022-08-11T09:15:55;2.60;;;1.53;;
9536;SDS011;4807;48.024;11.726;2022-08-11T09:19:04;2.27;;;1.37;;
9536;SDS011;4807;48.024;11.726;2022-08-11T09:22:16;2.20;;;2.00;;
9536;SDS011;4807;48.024;11.726;2022-08-11T09:25:46;1.70;;;1.57;;
9536;SDS011;4807;48.024;11.726;2022-08-11T09:29:16;2.43;;;1.63;;
9536;SDS011;4807;48.024;11.726;2022-08-11T09:32:24;2.93;;;1.60;;
9536;SDS011;4807;48.024;11.726;2022-08-11T09:35:37;2.10;;;1.90;;
9536;SDS011;4807;48.024;11.726;2022-08-11T09:38:52;4.30;;;1.73;;
9536;SDS011;4807;48.024;11.726;2022-08-11T09:42:19;2.10;;;1.90;;
9536;SDS011;4807;48.024;11.726;2022-08-11T09:45:51;1.93;;;1.80;;
9536;SDS011;4807;48.024;11.726;2022-08-11T09:49:01;1.70;;;1.60;;
9536;SDS011;4807;48.024;11.726;2022-08-11T09:52:12;2.73;;;2.07;;
9536;SDS011;4807;48.024;11.726;2022-08-11T09:55:22;2.47;;;2.10;;
9536;SDS011;4807;48.024;11.726;2022-08-11T09:58:32;2.17;;;1.70;;
9536;SDS011;4807;48.024;11.726;2022-08-11T10:01:51;3.93;;;1.67;;
9536;SDS011;4807;48.024;11.726;2022-08-11T10:05:06;2.03;;;1.83;;
9536;SDS011;4807;48.024;11.726;2022-08-11T10:08:33;2.87;;;1.60;;
9536;SDS011;4807;48.024;11.726;2022-08-11T10:11:46;2.30;;;1.80;;
9536;SDS011;4807;48.024;11.726;2022-08-11T10:15:06;2.77;;;1.73;;
9536;SDS011;4807;48.024;11.726;2022-08-11T10:18:36;2.73;;;1.70;;
9536;SDS011;4807;48.024;11.726;2022-08-11T10:21:55;1.83;;;1.73;;
9536;SDS011;4807;48.024;11.726;2022-08-11T10:25:21;1.93;;;1.73;;
9536;SDS011;4807;48.024;11.726;2022-08-11T10:28:47;3.97;;;1.70;;
9536;SDS011;4807;48.024;11.726;2022-08-11T10:32:19;1.70;;;1.60;;
9536;SDS011;4807;48.024;11.726;2022-08-11T10:36:06;2.07;;;1.57;;
9536;SDS011;4807;48.024;11.726;2022-08-11T10:39:23;1.83;;;1.60;;
9536;SDS011;4807;48.024;11.726;2022-08-11T10:42:33;3.23;;;1.77;;
9536;SDS011;4807;48.024;11.726;2022-08-11T10:46:04;1.27;;;1.27;;
9536;SDS011;4807;48.024;11.726;2022-08-11T10:49:35;2.37;;;1.80;;
9536;SDS011;4807;48.024;11.726;2022-08-11T10:52:47;1.93;;;1.57;;
9536;SDS011;4807;48.024;11.726;2022-08-11T10:56:16;2.10;;;1.90;;
9536;SDS011;4807;48.024;11.726;2022-08-11T10:59:43;2.47;;;1.43;;
9536;SDS011;4807;48.024;11.726;2022-08-11T11:02:53;1.60;;;1.50;;
9536;SDS011;4807;48.024;11.726;2022-08-11T11:06:26;2.40;;;1.77;;
9536;SDS011;4807;48.024;11.726;2022-08-11T11:09:46;2.03;;;1.40;;
9536;SDS011;4807;48.024;11.726;2022-08-11T11:13:01;1.93;;;1.73;;
9536;SDS011;4807;48.024;11.726;2022-08-11T11:16:28;2.90;;;1.60;;
9536;SDS011;4807;48.024;11.726;2022-08-11T11:27:31;2.50;;;1.67;;
9536;SDS011;4807;48.024;11.726;2022-08-11T11:30:55;2.00;;;1.83;;
9536;SDS011;4807;48.024;11.726;2022-08-11T11:34:25;3.23;;;1.60;;
9536;SDS011;4807;48.024;11.726;2022-08-11T11:37:59;1.63;;;1.40;;
9536;SDS011;4807;48.024;11.726;2022-08-11T11:41:10;1.93;;;1.40;;
9536;SDS011;4807;48.024;11.726;2022-08-11T11:44:36;2.60;;;1.57;;
9536;SDS011;4807;48.024;11.726;2022-08-11T11:47:46;4.93;;;1.63;;
9536;SDS011;4807;48.024;11.726;2022-08-11T11:50:59;1.50;;;1.40;;
9536;SDS011;4807;48.024;11.726;2022-08-11T11:54:08;2.07;;;1.50;;
9536;SDS011;4807;48.024;11.726;2022-08-11T11:57:18;3.20;;;1.40;;
9536;SDS011;4807;48.024;11.726;2022-08-11T12:01:06;2.70;;;1.47;;
9536;SDS011;4807;48.024;11.726;2022-08-11T12:04:25;2.60;;;1.53;;
9536;SDS011;4807;48.024;11.726;2022-08-11T12:07:35;1.30;;;1.20;;
9536;SDS011;4807;48.024;11.726;2022-08-11T12:11:18;2.30;;;1.30;;
9536;SDS011;4807;48.024;11.726;2022-08-11T12:14:49;3.23;;;1.30;;
9536;SDS011;4807;48.024;11.726;2022-08-11T12:18:01;1.73;;;1.40;;
9536;SDS011;4807;48.024;11.726;2022-08-11T12:21:11;2.17;;;1.40;;
9536;SDS011;4807;48.024;11.726;2022-08-11T12:24:22;2.50;;;1.40;;
9536;SDS011;4807;48.024;11.726;2022-08-11T12:27:48;3.50;;;1.53;;
9536;SDS011;4807;48.024;11.726;2022-08-11T12:30:59;2.67;;;1.53;;
9536;SDS011;4807;48.024;11.726;2022-08-11T12:34:13;1.40;;;1.30;;
9536;SDS011;4807;48.024;11.726;2022-08-11T12:37:23;1.60;;;1.30;;
9536;SDS011;4807;48.024;11.726;2022-08-11T12:40:37;2.40;;;1.30;;
9536;SDS011;4807;48.024;11.726;2022-08-11T12:44:22;8.23;;;1.57;;
9536;SDS011;4807;48.024;11.726;2022-08-11T12:47:53;1.60;;;1.50;;
9536;SDS011;4807;48.024;11.726;2022-08-11T12:51:51;1.63;;;1.30;;
9536;SDS011;4807;48.024;11.726;2022-08-11T12:55:19;3.27;;;1.30;;
9536;SDS011;4807;48.024;11.726;2022-08-11T12:58:46;1.93;;;1.30;;
9536;SDS011;4807;48.024;11.726;2022-08-11T13:01:59;1.20;;;1.10;;
9536;SDS011;4807;48.024;11.726;2022-08-11T13:05:26;4.40;;;1.40;;
9536;SDS011;4807;48.024;11.726;2022-08-11T13:08:47;1.40;;;1.10;;
9536;SDS011;4807;48.024;11.726;2022-08-11T13:11:56;3.83;;;1.37;;
9536;SDS011;4807;48.024;11.726;2022-08-11T13:15:23;2.43;;;1.43;;
9536;SDS011;4807;48.024;11.726;2022-08-11T13:18:32;2.27;;;1.37;;
9536;SDS011;4807;48.024;11.726;2022-08-11T13:21:41;1.50;;;1.40;;
9536;SDS011;4807;48.024;11.726;2022-08-11T13:24:52;4.37;;;1.40;;
9536;SDS011;4807;48.024;11.726;2022-08-11T13:28:03;1.10;;;1.00;;
9536;SDS011;4807;48.024;11.726;2022-08-11T13:31:13;1.30;;;1.20;;
9536;SDS011;4807;48.024;11.726;2022-08-11T13:34:22;1.20;;;1.10;;
9536;SDS011;4807;48.024;11.726;2022-08-11T13:37:33;1.90;;;1.00;;
9536;SDS011;4807;48.024;11.726;2022-08-11T13:41:03;1.50;;;1.03;;
9536;SDS011;4807;48.024;11.726;2022-08-11T13:44:33;1.47;;;1.00;;
9536;SDS011;4807;48.024;11.726;2022-08-11T13:47:44;1.40;;;1.30;;
9536;SDS011;4807;48.024;11.726;2022-08-11T13:50:55;2.33;;;1.30;;
9536;SDS011;4807;48.024;11.726;2022-08-11T13:54:23;2.97;;;1.10;;
9536;SDS011;4807;48.024;11.726;2022-08-11T13:57:38;1.67;;;1.47;;
9536;SDS011;4807;48.024;11.726;2022-08-11T14:01:06;1.30;;;1.20;;
9536;SDS011;4807;48.024;11.726;2022-08-11T14:04:37;1.70;;;1.27;;
9536;SDS011;4807;48.024;11.726;2022-08-11T14:07:50;2.03;;;1.50;;
9536;SDS011;4807;48.024;11.726;2022-08-11T14:11:04;5.27;;;1.13;;
9536;SDS011;4807;48.024;11.726;2022-08-11T14:14:55;1.10;;;1.10;;
9536;SDS011;4807;48.024;11.726;2022-08-11T14:18:16;1.30;;;1.20;;
9536;SDS011;4807;48.024;11.726;2022-08-11T14:21:29;2.23;;;1.20;;
9536;SDS011;4807;48.024;11.726;2022-08-11T14:25:00;1.00;;;0.90;;
9536;SDS011;4807;48.024;11.726;2022-08-11T14:28:09;1.23;;;1.10;;
9536;SDS011;4807;48.024;11.726;2022-08-11T14:31:42;3.20;;;1.03;;
9536;SDS011;4807;48.024;11.726;2022-08-11T14:34:55;1.50;;;1.07;;
9536;SDS011;4807;48.024;11.726;2022-08-11T14:38:05;1.90;;;1.10;;
9536;SDS011;4807;48.024;11.726;2022-08-11T14:41:15;3.83;;;1.27;;
9536;SDS011;4807;48.024;11.726;2022-08-11T14:45:03;1.00;;;1.00;;
9536;SDS011;4807;48.024;11.726;2022-08-11T14:48:56;1.40;;;1.30;;
9536;SDS011;4807;48.024;11.726;2022-08-11T14:52:07;2.77;;;0.90;;
9536;SDS011;4807;48.024;11.726;2022-08-11T14:55:19;2.83;;;1.10;;
9536;SDS011;4807;48.024;11.726;2022-08-11T14:58:48;1.47;;;1.13;;
9536;SDS011;4807;48.024;11.726;2022-08-11T15:01:57;1.17;;;0.90;;
9536;SDS011;4807;48.024;11.726;2022-08-11T15:05:28;1.33;;;1.00;;
9536;SDS011;4807;48.024;11.726;2022-08-11T15:08:38;1.13;;;1.03;;
9536;SDS011;4807;48.024;11.726;2022-08-11T15:12:03;1.50;;;0.97;;
9536;SDS011;4807;48.024;11.726;2022-08-11T15:15:35;0.80;;;0.80;;
9536;SDS011;4807;48.024;11.726;2022-08-11T15:19:02;1.03;;;0.90;;
9536;SDS011;4807;48.024;11.726;2022-08-11T15:22:13;1.40;;;1.00;;
9536;SDS011;4807;48.024;11.726;2022-08-11T15:25:40;0.90;;;0.90;;
9536;SDS011;4807;48.024;11.726;2022-08-11T15:28:54;1.30;;;1.10;;
9536;SDS011;4807;48.024;11.726;2022-08-11T15:32:20;2.83;;;1.00;;
9536;SDS011;4807;48.024;11.726;2022-08-11T15:35:49;0.90;;;0.70;;
9536;SDS011;4807;48.024;11.726;2022-08-11T15:39:27;1.03;;;0.93;;
9536;SDS011;4807;48.024;11.726;2022-08-11T15:42:44;1.53;;;1.07;;
9536;SDS011;4807;48.024;11.726;2022-08-11T15:46:19;1.13;;;1.03;;
9536;SDS011;4807;48.024;11.726;2022-08-11T15:49:36;0.80;;;0.80;;
9536;SDS011;4807;48.024;11.726;2022-08-11T15:53:11;1.50;;;1.07;;
9536;SDS011;4807;48.024;11.726;2022-08-11T15:56:28;1.13;;;0.93;;
9536;SDS011;4807;48.024;11.726;2022-08-11T15:59:42;0.90;;;0.90;;
9536;SDS011;4807;48.024;11.726;2022-08-11T16:03:16;1.43;;;1.07;;
9536;SDS011;4807;48.024;11.726;2022-08-11T16:07:07;1.67;;;1.00;;
9536;SDS011;4807;48.024;11.726;2022-08-11T16:10:19;1.13;;;1.00;;
9536;SDS011;4807;48.024;11.726;2022-08-11T16:13:31;1.33;;;1.10;;
9536;SDS011;4807;48.024;11.726;2022-08-11T16:17:02;0.90;;;0.90;;
9536;SDS011;4807;48.024;11.726;2022-08-11T16:20:14;2.53;;;1.20;;
9536;SDS011;4807;48.024;11.726;2022-08-11T16:23:27;1.33;;;0.90;;
9536;SDS011;4807;48.024;11.726;2022-08-11T16:26:35;2.03;;;1.00;;
9536;SDS011;4807;48.024;11.726;2022-08-11T16:30:11;1.03;;;1.00;;
9536;SDS011;4807;48.024;11.726;2022-08-11T16:33:21;3.17;;;0.90;;
9536;SDS011;4807;48.024;11.726;2022-08-11T16:36:52;2.83;;;0.90;;
9536;SDS011;4807;48.024;11.726;2022-08-11T16:40:20;1.80;;;0.97;;
9536;SDS011;4807;48.024;11.726;2022-08-11T16:43:31;2.47;;;1.20;;
9536;SDS011;4807;48.024;11.726;2022-08-11T16:47:03;2.07;;;1.03;;
9536;SDS011;4807;48.024;11.726;2022-08-11T16:50:14;1.40;;;1.30;;
9536;SDS011;4807;48.024;11.726;2022-08-11T16:53:27;1.93;;;0.90;;
9536;SDS011;4807;48.024;11.726;2022-08-11T16:56:56;2.93;;;1.17;;
9536;SDS011;4807;48.024;11.726;2022-08-11T17:00:29;1.40;;;1.20;;
9536;SDS011;4807;48.024;11.726;2022-08-11T17:03:46;1.07;;;1.00;;
9536;SDS011;4807;48.024;11.726;2022-08-11T17:07:22;2.13;;;1.33;;
9536;SDS011;4807;48.024;11.726;2022-08-11T17:10:55;1.57;;;0.90;;
9536;SDS011;4807;48.024;11.726;2022-08-11T17:14:24;1.50;;;0.97;;
9536;SDS011;4807;48.024;11.726;2022-08-11T17:17:41;1.30;;;1.20;;
9536;SDS011;4807;48.024;11.726;2022-08-11T17:20:53;1.90;;;0.97;;
9536;SDS011;4807;48.024;11.726;2022-08-11T17:24:02;1.37;;;0.97;;
9536;SDS011;4807;48.024;11.726;2022-08-11T17:27:15;0.93;;;0.90;;
9536;SDS011;4807;48.024;11.726;2022-08-11T17:30:27;2.70;;;1.17;;
9536;SDS011;4807;48.024;11.726;2022-08-11T17:33:52;4.73;;;1.20;;
9536;SDS011;4807;48.024;11.726;2022-08-11T17:37:23;2.53;;;1.30;;
9536;SDS011;4807;48.024;11.726;2022-08-11T17:40:35;1.47;;;0.97;;
9536;SDS011;4807;48.024;11.726;2022-08-11T17:44:05;1.13;;;0.90;;
9536;SDS011;4807;48.024;11.726;2022-08-11T17:47:32;2.53;;;1.13;;
9536;SDS011;4807;48.024;11.726;2022-08-11T17:50:59;2.03;;;1.00;;
9536;SDS011;4807;48.024;11.726;2022-08-11T17:54:13;1.10;;;1.00;;
9536;SDS011;4807;48.024;11.726;2022-08-11T17:57:41;1.00;;;0.83;;
9536;SDS011;4807;48.024;11.726;2022-08-11T18:01:08;1.53;;;0.87;;
9536;SDS011;4807;48.024;11.726;2022-08-11T18:04:19;1.13;;;0.80;;
9536;SDS011;4807;48.024;11.726;2022-08-11T18:07:29;0.93;;;0.93;;
9536;SDS011;4807;48.024;11.726;2022-08-11T18:11:00;0.90;;;0.90;;
9536;SDS011;4807;48.024;11.726;2022-08-11T18:14:47;2.20;;;0.90;;
9536;SDS011;4807;48.024;11.726;2022-08-11T18:18:18;1.90;;;0.90;;
9536;SDS011;4807;48.024;11.726;2022-08-11T18:21:44;3.97;;;1.10;;
9536;SDS011;4807;48.024;11.726;2022-08-11T18:25:22;3.70;;;1.03;;
9536;SDS011;4807;48.024;11.726;2022-08-11T18:28:54;1.10;;;1.00;;
9536;SDS011;4807;48.024;11.726;2022-08-11T18:32:21;1.20;;;0.83;;
9536;SDS011;4807;48.024;11.726;2022-08-11T18:35:57;1.33;;;0.70;;
9536;SDS011;4807;48.024;11.726;2022-08-11T18:39:25;3.07;;;1.00;;
9536;SDS011;4807;48.024;11.726;2022-08-11T18:43:03;1.00;;;0.90;;
9536;SDS011;4807;48.024;11.726;2022-08-11T18:46:35;3.13;;;0.90;;
9536;SDS011;4807;48.024;11.726;2022-08-11T18:50:11;2.53;;;1.00;;
9536;SDS011;4807;48.024;11.726;2022-08-11T18:53:46;3.30;;;1.03;;
9536;SDS011;4807;48.024;11.726;2022-08-11T18:57:16;1.03;;;0.77;;
9536;SDS011;4807;48.024;11.726;2022-08-11T19:00:59;1.60;;;0.73;;
9536;SDS011;4807;48.024;11.726;2022-08-11T19:04:31;1.53;;;0.93;;
9536;SDS011;4807;48.024;11.726;2022-08-11T19:07:59;2.70;;;0.97;;
9536;SDS011;4807;48.024;11.726;2022-08-11T19:11:27;0.70;;;0.70;;
9536;SDS011;4807;48.024;11.726;2022-08-11T19:14:56;0.80;;;0.80;;
9536;SDS011;4807;48.024;11.726;2022-08-11T19:18:24;2.63;;;1.10;;
9536;SDS011;4807;48.024;11.726;2022-08-11T19:21:55;2.83;;;1.13;;
9536;SDS011;4807;48.024;11.726;2022-08-11T19:25:25;6.43;;;1.40;;
9536;SDS011;4807;48.024;11.726;2022-08-11T19:28:55;0.97;;;0.97;;
9536;SDS011;4807;48.024;11.726;2022-08-11T19:32:43;1.90;;;0.80;;
9536;SDS011;4807;48.024;11.726;2022-08-11T19:36:09;1.00;;;1.00;;
9536;SDS011;4807;48.024;11.726;2022-08-11T19:39:40;1.67;;;1.00;;
9536;SDS011;4807;48.024;11.726;2022-08-11T19:43:09;1.63;;;0.80;;
9536;SDS011;4807;48.024;11.726;2022-08-11T19:46:36;1.83;;;1.03;;
9536;SDS011;4807;48.024;11.726;2022-08-11T19:50:12;1.00;;;0.90;;
9536;SDS011;4807;48.024;11.726;2022-08-11T19:53:43;0.73;;;0.73;;
9536;SDS011;4807;48.024;11.726;2022-08-11T19:57:12;0.97;;;0.90;;
9536;SDS011;4807;48.024;11.726;2022-08-11T20:00:45;1.30;;;1.20;;
9536;SDS011;4807;48.024;11.726;2022-08-11T20:04:12;1.60;;;1.47;;
9536;SDS011;4807;48.024;11.726;2022-08-11T20:07:38;0.80;;;0.80;;
9536;SDS011;4807;48.024;11.726;2022-08-11T20:11:05;1.57;;;1.10;;
9536;SDS011;4807;48.024;11.726;2022-08-11T20:14:34;0.80;;;0.80;;
9536;SDS011;4807;48.024;11.726;2022-08-11T20:18:04;1.27;;;1.00;;
9536;SDS011;4807;48.024;11.726;2022-08-11T20:21:34;1.00;;;0.90;;
9536;SDS011;4807;48.024;11.726;2022-08-11T20:25:07;0.90;;;0.80;;
9536;SDS011;4807;48.024;11.726;2022-08-11T20:28:34;0.80;;;0.80;;
9536;SDS011;4807;48.024;11.726;2022-08-11T20:32:05;0.80;;;0.80;;
9536;SDS011;4807;48.024;11.726;2022-08-11T20:35:32;1.13;;;1.03;;
9536;SDS011;4807;48.024;11.726;2022-08-11T20:39:00;2.70;;;0.90;;
9536;SDS011;4807;48.024;11.726;2022-08-11T20:42:28;1.37;;;1.00;;
9536;SDS011;4807;48.024;11.726;2022-08-11T20:45:57;3.30;;;0.87;;
9536;SDS011;4807;48.024;11.726;2022-08-11T20:49:27;2.00;;;0.90;;
9536;SDS011;4807;48.024;11.726;2022-08-11T20:53:03;1.17;;;0.90;;
9536;SDS011;4807;48.024;11.726;2022-08-11T20:56:33;6.37;;;1.10;;
9536;SDS011;4807;48.024;11.726;2022-08-11T21:00:03;1.03;;;0.90;;
9536;SDS011;4807;48.024;11.726;2022-08-11T21:03:45;1.73;;;1.13;;
9536;SDS011;4807;48.024;11.726;2022-08-11T21:07:12;1.13;;;1.10;;
9536;SDS011;4807;48.024;11.726;2022-08-11T21:10:44;1.43;;;1.00;;
9536;SDS011;4807;48.024;11.726;2022-08-11T21:14:13;1.37;;;0.90;;
9536;SDS011;4807;48.024;11.726;2022-08-11T21:17:40;1.10;;;0.80;;
9536;SDS011;4807;48.024;11.726;2022-08-11T21:21:12;0.90;;;0.90;;
9536;SDS011;4807;48.024;11.726;2022-08-11T21:24:53;0.90;;;0.90;;
9536;SDS011;4807;48.024;11.726;2022-08-11T21:28:22;1.07;;;0.97;;
9536;SDS011;4807;48.024;11.726;2022-08-11T21:31:49;2.27;;;0.80;;
9536;SDS011;4807;48.024;11.726;2022-08-11T21:35:19;2.30;;;0.80;;
9536;SDS011;4807;48.024;11.726;2022-08-11T21:38:50;1.23;;;1.13;;
9536;SDS011;4807;48.024;11.726;2022-08-11T21:42:19;2.07;;;0.90;;
9536;SDS011;4807;48.024;11.726;2022-08-11T21:45:46;1.00;;;1.00;;
9536;SDS011;4807;48.024;11.726;2022-08-11T21:49:15;1.40;;;1.30;;
9536;SDS011;4807;48.024;11.726;2022-08-11T21:52:44;2.60;;;1.20;;
9536;SDS011;4807;48.024;11.726;2022-08-11T21:56:12;1.63;;;0.90;;
9536;SDS011;4807;48.024;11.726;2022-08-11T21:59:43;1.33;;;1.10;;